Time;durP1;ratioP1;P1;durP2;ratioP2;P2;SDS_P1;SDS_P2;PMS_P1;PMS_P2;Temp;Humidity;BMP_temperature;BMP_pressure;BME280_temperature;BME280_humidity;BME280_pressure;Samples;Min_cycle;Max_cycle;Signal;HPM_P1;HPM_P2
2023/08/06 00:00:24;;;;;;;5.50;3.90;;;14.30;99.90;;;;;;6100588;23;20583;-92
2023/08/06 00:02:50;;;;;;;6.60;3.77;;;14.30;99.90;;;;;;6100856;23;20211;-91
2023/08/06 00:05:18;;;;;;;5.57;4.07;;;14.30;99.90;;;;;;6099202;23;20191;-91
2023/08/06 00:07:49;;;;;;;6.43;4.37;;;14.30;99.90;;;;;;6126066;23;20167;-91
2023/08/06 00:10:15;;;;;;;7.00;5.03;;;14.40;99.90;;;;;;6101176;23;20200;-91
2023/08/06 00:12:41;;;;;;;5.47;3.87;;;14.40;99.90;;;;;;6100687;23;20294;-92
2023/08/06 00:15:08;;;;;;;7.60;5.23;;;14.40;99.90;;;;;;6101405;23;20212;-91
2023/08/06 00:17:34;;;;;;;6.27;4.03;;;14.40;99.90;;;;;;6077493;23;20199;-91
2023/08/06 00:20:06;;;;;;;7.60;4.03;;;14.40;99.90;;;;;;6101059;23;20164;-91
2023/08/06 00:22:36;;;;;;;3.97;2.93;;;14.40;99.90;;;;;;6101942;23;20184;-91
2023/08/06 00:25:03;;;;;;;6.37;4.33;;;14.40;99.90;;;;;;6125900;23;20188;-91
2023/08/06 00:27:29;;;;;;;5.13;3.30;;;14.30;99.90;;;;;;6125490;23;20278;-91
2023/08/06 00:29:55;;;;;;;5.50;4.00;;;14.30;99.90;;;;;;6125684;23;20240;-91
2023/08/06 00:32:21;;;;;;;4.00;3.60;;;14.30;99.90;;;;;;6101275;23;20191;-93
2023/08/06 00:34:49;;;;;;;5.20;3.63;;;14.40;99.90;;;;;;6125063;23;20192;-92
2023/08/06 00:37:18;;;;;;;9.20;3.53;;;14.30;99.90;;;;;;6100099;23;20781;-92
2023/08/06 00:39:44;;;;;;;6.83;3.77;;;14.40;99.90;;;;;;6076504;23;20237;-92
2023/08/06 00:42:11;;;;;;;4.87;4.00;;;14.40;99.90;;;;;;6101281;23;20638;-92
2023/08/06 00:44:37;;;;;;;5.10;3.40;;;14.40;99.90;;;;;;6125992;23;20645;-91
2023/08/06 00:47:04;;;;;;;6.47;4.83;;;14.40;99.90;;;;;;6101992;23;20168;-91
2023/08/06 00:49:30;;;;;;;5.27;2.77;;;14.40;99.90;;;;;;6125400;23;20192;-92
2023/08/06 00:51:57;;;;;;;7.20;4.20;;;14.40;99.90;;;;;;6100698;23;20208;-92
2023/08/06 00:54:23;;;;;;;5.43;4.07;;;14.40;99.90;;;;;;6100962;23;20187;-90
2023/08/06 00:56:49;;;;;;;5.33;3.40;;;14.40;99.90;;;;;;6101489;23;20315;-91
2023/08/06 00:59:15;;;;;;;6.93;4.73;;;14.40;99.90;;;;;;6101762;23;20194;-90
2023/08/06 01:01:41;;;;;;;5.40;4.30;;;14.40;99.90;;;;;;6102476;23;20164;-91
2023/08/06 01:04:07;;;;;;;5.97;4.50;;;14.50;99.90;;;;;;6101453;23;20200;-90
2023/08/06 01:06:48;;;;;;;6.70;4.53;;;14.40;99.90;;;;;;6126042;23;20200;-90
2023/08/06 01:09:45;;;;;;;6.87;4.43;;;14.40;99.90;;;;;;6101924;23;20192;-90
2023/08/06 01:12:55;;;;;;;9.97;4.40;;;14.40;99.90;;;;;;6126014;23;20207;-90
2023/08/06 01:15:27;;;;;;;8.47;3.50;;;14.40;99.90;;;;;;6043058;23;20233;-90
2023/08/06 01:17:54;;;;;;;6.20;3.97;;;14.40;99.90;;;;;;6141640;23;20203;-91
2023/08/06 01:20:19;;;;;;;7.10;4.07;;;14.40;99.90;;;;;;6101546;23;20215;-91
2023/08/06 01:22:45;;;;;;;7.97;4.93;;;14.40;99.90;;;;;;6102697;23;20156;-90
2023/08/06 01:25:16;;;;;;;7.47;5.30;;;14.40;99.90;;;;;;6126258;23;20242;-91
2023/08/06 01:27:41;;;;;;;6.03;4.20;;;14.40;99.90;;;;;;6126464;23;20204;-90
2023/08/06 01:30:13;;;;;;;6.73;3.87;;;14.40;99.90;;;;;;6125941;23;20195;-91
2023/08/06 01:32:44;;;;;;;8.23;3.17;;;14.40;99.90;;;;;;6125337;23;20219;-91
2023/08/06 01:35:12;;;;;;;4.30;3.27;;;14.30;99.90;;;;;;6125475;23;20200;-91
2023/08/06 01:37:38;;;;;;;5.73;4.17;;;14.30;99.90;;;;;;6102115;23;20164;-91
2023/08/06 01:40:11;;;;;;;9.17;4.33;;;14.30;99.90;;;;;;6101237;23;20219;-91
2023/08/06 01:42:38;;;;;;;10.07;5.70;;;14.30;99.90;;;;;;6100887;23;20199;-91
2023/08/06 01:45:05;;;;;;;8.77;4.43;;;14.20;99.90;;;;;;6125559;23;20219;-91
2023/08/06 01:47:31;;;;;;;9.73;5.70;;;14.30;99.90;;;;;;6126036;23;20219;-91
2023/08/06 01:49:56;;;;;;;5.93;3.63;;;14.30;99.90;;;;;;6102508;23;20168;-91
2023/08/06 01:52:22;;;;;;;5.77;4.70;;;14.30;99.90;;;;;;6101161;23;20208;-91
2023/08/06 01:54:48;;;;;;;15.03;4.63;;;14.30;99.90;;;;;;6101497;23;20207;-91
2023/08/06 01:57:14;;;;;;;6.90;4.60;;;14.30;99.90;;;;;;6101246;23;20279;-91
2023/08/06 01:59:40;;;;;;;10.80;5.77;;;14.30;99.90;;;;;;6101360;23;20478;-91
2023/08/06 02:02:05;;;;;;;8.30;4.27;;;14.30;99.90;;;;;;6101910;23;20167;-91
2023/08/06 02:04:31;;;;;;;7.37;4.37;;;14.30;99.90;;;;;;6101050;23;20200;-91
2023/08/06 02:06:57;;;;;;;8.60;3.73;;;14.30;99.90;;;;;;6101357;23;20200;-91
2023/08/06 02:09:25;;;;;;;7.17;4.40;;;14.40;99.90;;;;;;6102282;23;20191;-91
2023/08/06 02:11:51;;;;;;;8.90;5.17;;;14.30;99.90;;;;;;6101579;23;20563;-92
2023/08/06 02:14:17;;;;;;;5.60;4.20;;;14.40;99.90;;;;;;6101175;23;20164;-92
2023/08/06 02:16:43;;;;;;;8.53;5.30;;;14.30;99.90;;;;;;6102215;23;20206;-89
2023/08/06 02:19:08;;;;;;;7.67;4.20;;;14.40;99.90;;;;;;6101821;23;20227;-91
2023/08/06 02:21:34;;;;;;;6.53;4.20;;;14.40;99.90;;;;;;6101629;23;20198;-91
2023/08/06 02:24:00;;;;;;;7.27;4.63;;;14.40;99.90;;;;;;6101321;23;20202;-92
2023/08/06 02:26:26;;;;;;;5.43;4.63;;;14.50;99.90;;;;;;6101741;23;20165;-91
2023/08/06 02:28:52;;;;;;;5.00;3.83;;;14.50;99.90;;;;;;6102147;23;20156;-91
2023/08/06 02:31:18;;;;;;;9.67;5.23;;;14.50;99.90;;;;;;6101223;23;20192;-91
2023/08/06 02:33:43;;;;;;;8.07;4.20;;;14.50;99.90;;;;;;6101216;23;20215;-91
2023/08/06 02:36:09;;;;;;;9.07;4.03;;;14.50;99.90;;;;;;6101477;23;20581;-91
2023/08/06 02:38:35;;;;;;;8.13;4.83;;;14.50;99.90;;;;;;6125594;23;20243;-91
2023/08/06 02:41:04;;;;;;;6.83;4.03;;;14.60;99.90;;;;;;6125978;23;20184;-91
2023/08/06 02:43:30;;;;;;;7.10;4.07;;;14.70;99.90;;;;;;6101808;23;20238;-92
2023/08/06 02:46:00;;;;;;;4.50;3.87;;;14.60;99.90;;;;;;6101701;23;20307;-91
2023/08/06 02:48:26;;;;;;;5.77;4.13;;;14.60;99.90;;;;;;6101427;23;20211;-91
2023/08/06 02:50:52;;;;;;;7.73;4.27;;;14.70;99.90;;;;;;6125664;23;20633;-91
2023/08/06 02:53:18;;;;;;;4.77;3.90;;;14.70;99.90;;;;;;6101035;23;20193;-91
2023/08/06 02:55:48;;;;;;;5.97;3.83;;;14.60;99.90;;;;;;6103829;23;20248;-91
2023/08/06 02:58:14;;;;;;;9.00;5.27;;;14.70;99.90;;;;;;6127625;23;20283;-91
2023/08/06 03:00:40;;;;;;;5.27;4.77;;;14.70;99.90;;;;;;6103282;23;20222;-91
2023/08/06 03:03:06;;;;;;;7.17;4.80;;;14.70;99.90;;;;;;6103001;23;20629;-91
2023/08/06 03:05:32;;;;;;;5.80;4.93;;;14.70;99.90;;;;;;6102779;23;20195;-91
2023/08/06 03:07:57;;;;;;;9.83;4.03;;;14.70;99.90;;;;;;6103702;23;20165;-91
2023/08/06 03:10:23;;;;;;;5.93;3.87;;;14.60;99.90;;;;;;6103348;23;20562;-92
2023/08/06 03:12:49;;;;;;;5.87;4.20;;;14.60;99.90;;;;;;6102921;23;20207;-91
2023/08/06 03:15:15;;;;;;;7.60;4.57;;;14.60;99.90;;;;;;6103173;23;20219;-92
2023/08/06 03:17:40;;;;;;;7.43;4.27;;;14.60;99.90;;;;;;6102854;23;20319;-91
2023/08/06 03:20:07;;;;;;;6.50;5.10;;;14.60;99.90;;;;;;6103443;23;20160;-91
2023/08/06 03:22:35;;;;;;;5.93;4.03;;;14.60;99.90;;;;;;6127517;23;20188;-93
2023/08/06 03:25:01;;;;;;;8.47;4.40;;;14.60;99.90;;;;;;6103212;23;20204;-92
2023/08/06 03:27:27;;;;;;;8.53;5.00;;;14.60;99.90;;;;;;6103115;23;20195;-93
2023/08/06 03:29:52;;;;;;;8.23;4.83;;;14.60;99.90;;;;;;6102958;23;20219;-93
2023/08/06 03:32:18;;;;;;;8.57;4.87;;;14.60;99.90;;;;;;6102373;23;20243;-93
2023/08/06 03:34:44;;;;;;;4.30;2.63;;;14.60;99.90;;;;;;6101784;23;20211;-93
2023/08/06 03:37:10;;;;;;;5.13;4.07;;;14.60;99.90;;;;;;6101865;23;20257;-93
2023/08/06 03:39:36;;;;;;;6.90;4.23;;;14.60;99.90;;;;;;6102297;23;20625;-93
2023/08/06 03:42:01;;;;;;;6.40;4.00;;;14.60;99.90;;;;;;6102360;23;20200;-93
2023/08/06 03:44:28;;;;;;;6.83;4.83;;;14.60;99.90;;;;;;6102415;23;20598;-93
2023/08/06 03:46:54;;;;;;;7.10;4.17;;;14.60;99.90;;;;;;6103297;23;20650;-94
2023/08/06 03:49:19;;;;;;;6.17;3.97;;;14.60;99.90;;;;;;6102252;23;20231;-93
2023/08/06 03:51:46;;;;;;;6.93;4.83;;;14.60;99.90;;;;;;6102109;23;20266;-92
2023/08/06 03:54:12;;;;;;;8.40;5.27;;;14.60;99.90;;;;;;6101436;23;20195;-91
2023/08/06 03:56:38;;;;;;;11.10;6.40;;;14.60;99.90;;;;;;6102425;23;20258;-91
2023/08/06 03:59:04;;;;;;;5.70;4.17;;;14.70;99.90;;;;;;6102694;23;20247;-91
2023/08/06 04:01:29;;;;;;;5.80;3.57;;;14.60;99.90;;;;;;6101684;23;20331;-91
2023/08/06 04:03:55;;;;;;;5.80;3.93;;;14.70;99.90;;;;;;6101747;23;20215;-92
2023/08/06 04:06:21;;;;;;;6.47;4.60;;;14.60;99.90;;;;;;6101286;23;20275;-91
2023/08/06 04:08:46;;;;;;;9.10;4.33;;;14.60;99.90;;;;;;6101995;23;20196;-90
2023/08/06 04:11:13;;;;;;;7.33;4.00;;;14.60;99.90;;;;;;6101847;23;20156;-90
2023/08/06 04:13:42;;;;;;;6.17;4.60;;;14.70;99.90;;;;;;6102785;23;20170;-91
2023/08/06 04:16:07;;;;;;;8.87;4.30;;;14.60;99.90;;;;;;6103059;23;20535;-91
2023/08/06 04:18:33;;;;;;;7.67;4.90;;;14.70;99.90;;;;;;6101946;23;20195;-89
2023/08/06 04:20:59;;;;;;;5.07;4.27;;;14.70;99.90;;;;;;6102388;23;20191;-91
2023/08/06 04:23:25;;;;;;;6.63;4.53;;;14.70;99.90;;;;;;6100764;23;20164;-90
2023/08/06 04:25:50;;;;;;;6.40;4.50;;;14.70;99.90;;;;;;6127119;23;20184;-92
2023/08/06 04:28:16;;;;;;;5.83;4.53;;;14.80;99.90;;;;;;6101616;23;20200;-91
2023/08/06 04:30:42;;;;;;;6.73;5.00;;;14.80;99.90;;;;;;6101607;23;20207;-90
2023/08/06 04:33:08;;;;;;;6.57;4.60;;;14.80;99.90;;;;;;6101963;23;20207;-90
2023/08/06 04:35:36;;;;;;;12.33;4.30;;;14.80;99.90;;;;;;6102113;23;20211;-90
2023/08/06 04:38:02;;;;;;;6.57;5.47;;;14.90;99.90;;;;;;6126907;23;20156;-90
2023/08/06 04:40:28;;;;;;;12.07;6.00;;;14.90;99.90;;;;;;6101782;23;20204;-90
2023/08/06 04:42:54;;;;;;;10.40;5.70;;;15.00;99.90;;;;;;6101755;23;20274;-90
2023/08/06 04:45:19;;;;;;;7.43;4.27;;;15.00;99.90;;;;;;6101775;23;20196;-90
2023/08/06 04:47:45;;;;;;;8.37;5.03;;;15.00;99.90;;;;;;6101552;23;20235;-90
2023/08/06 04:50:11;;;;;;;8.67;5.97;;;15.10;99.90;;;;;;6101477;23;20211;-90
2023/08/06 04:52:37;;;;;;;10.23;5.60;;;15.10;99.90;;;;;;6102710;23;20270;-90
2023/08/06 04:55:05;;;;;;;7.97;4.87;;;15.20;99.90;;;;;;6102113;23;20259;-90
2023/08/06 04:57:31;;;;;;;7.50;4.80;;;15.10;99.90;;;;;;6102206;23;20664;-90
2023/08/06 04:59:57;;;;;;;7.83;5.23;;;15.10;99.90;;;;;;6101609;23;20225;-90
2023/08/06 05:02:22;;;;;;;8.57;4.50;;;15.20;99.90;;;;;;6101704;23;20165;-91
2023/08/06 05:04:48;;;;;;;7.17;5.03;;;15.20;99.90;;;;;;6102394;23;20582;-91
2023/08/06 05:07:14;;;;;;;10.63;5.33;;;15.20;99.90;;;;;;6101983;23;20199;-91
2023/08/06 05:09:40;;;;;;;7.87;5.07;;;15.20;99.90;;;;;;6100899;23;20204;-91
2023/08/06 05:12:06;;;;;;;8.87;5.70;;;15.20;99.90;;;;;;6101523;23;20206;-91
2023/08/06 05:14:32;;;;;;;9.50;5.70;;;15.20;99.90;;;;;;6101465;23;20215;-90
2023/08/06 05:16:57;;;;;;;9.30;5.33;;;15.20;99.90;;;;;;6102060;23;20613;-90
2023/08/06 05:19:23;;;;;;;8.97;5.03;;;15.30;99.90;;;;;;6101501;23;20219;-90
2023/08/06 05:21:49;;;;;;;6.97;4.93;;;15.30;99.90;;;;;;6101355;23;20199;-90
2023/08/06 05:24:15;;;;;;;7.67;5.30;;;15.40;99.90;;;;;;6101683;23;20266;-91
2023/08/06 05:26:40;;;;;;;10.80;5.77;;;15.40;99.90;;;;;;6100676;23;20195;-90
2023/08/06 05:29:06;;;;;;;6.10;5.07;;;15.40;99.90;;;;;;6102030;23;20172;-90
2023/08/06 05:31:32;;;;;;;14.13;6.03;;;15.40;99.90;;;;;;6100877;23;20645;-89
2023/08/06 05:33:58;;;;;;;11.93;5.37;;;15.40;99.90;;;;;;6100147;23;20661;-89
2023/08/06 05:36:24;;;;;;;6.47;4.80;;;15.40;99.90;;;;;;6124952;23;20191;-89
2023/08/06 05:38:49;;;;;;;8.27;4.93;;;15.40;99.90;;;;;;6100654;23;20212;-89
2023/08/06 05:41:15;;;;;;;8.43;5.73;;;15.50;99.90;;;;;;6100330;23;20161;-90
2023/08/06 05:43:41;;;;;;;8.20;5.60;;;15.50;99.90;;;;;;6097995;23;20273;-91
2023/08/06 05:46:06;;;;;;;12.40;5.77;;;15.50;99.90;;;;;;6095159;23;20275;-91
2023/08/06 05:48:32;;;;;;;7.73;4.60;;;15.50;99.90;;;;;;6095228;23;20196;-91
2023/08/06 05:50:58;;;;;;;6.33;4.10;;;15.60;99.90;;;;;;6094403;23;20202;-90
2023/08/06 05:53:24;;;;;;;7.17;4.40;;;15.70;99.90;;;;;;6095260;23;20230;-90
2023/08/06 05:55:50;;;;;;;10.53;5.40;;;15.80;99.90;;;;;;6095618;23;20171;-90
2023/08/06 05:58:16;;;;;;;7.37;4.93;;;15.80;99.90;;;;;;6094552;23;20192;-93
2023/08/06 06:00:43;;;;;;;7.67;4.57;;;15.80;99.90;;;;;;6097406;23;20279;-91
2023/08/06 06:03:11;;;;;;;8.77;5.10;;;15.90;99.90;;;;;;6101831;23;20219;-92
2023/08/06 06:05:39;;;;;;;7.53;5.30;;;15.90;99.90;;;;;;6096922;23;20202;-94
2023/08/06 06:08:04;;;;;;;9.27;5.83;;;16.00;99.90;;;;;;6100636;23;20481;-96
2023/08/06 06:10:30;;;;;;;10.17;6.87;;;16.20;99.90;;;;;;6121581;23;20236;-93
2023/08/06 06:12:56;;;;;;;9.03;4.93;;;16.20;99.90;;;;;;6120383;23;20648;-93
2023/08/06 06:15:22;;;;;;;7.33;4.37;;;16.40;99.90;;;;;;6095319;23;20196;-95
2023/08/06 06:17:48;;;;;;;9.90;6.43;;;16.40;99.90;;;;;;6098212;23;20238;-91
2023/08/06 06:20:17;;;;;;;6.33;4.37;;;16.50;99.90;;;;;;6098635;23;20161;-93
2023/08/06 06:22:44;;;;;;;9.73;5.40;;;16.60;99.90;;;;;;6122668;23;20163;-93
2023/08/06 06:25:10;;;;;;;8.17;5.17;;;16.80;99.90;;;;;;6110360;23;20676;-93
2023/08/06 06:27:36;;;;;;;10.87;5.47;;;16.90;99.90;;;;;;6096977;23;20211;-92
2023/08/06 06:30:02;;;;;;;9.00;6.63;;;16.90;99.90;;;;;;6095715;23;20645;-91
2023/08/06 06:32:28;;;;;;;10.97;6.07;;;17.00;99.90;;;;;;6096492;23;20204;-90
2023/08/06 06:34:54;;;;;;;6.90;5.43;;;17.10;99.90;;;;;;6096711;23;20214;-92
2023/08/06 06:37:20;;;;;;;6.63;4.97;;;17.10;99.90;;;;;;6096451;23;20608;-91
2023/08/06 06:39:45;;;;;;;7.57;4.70;;;17.20;99.90;;;;;;6097455;23;20278;-93
2023/08/06 06:42:11;;;;;;;10.03;6.40;;;17.30;99.90;;;;;;6094510;23;20250;-91
2023/08/06 06:44:37;;;;;;;13.60;5.67;;;17.40;99.90;;;;;;6095104;23;20219;-91
2023/08/06 06:47:03;;;;;;;7.80;4.37;;;17.40;99.90;;;;;;6094476;23;20168;-90
2023/08/06 06:49:29;;;;;;;9.10;6.47;;;17.60;99.90;;;;;;6071657;23;20277;-90
2023/08/06 06:51:58;;;;;;;5.93;4.20;;;17.70;99.90;;;;;;6094795;23;20292;-91
2023/08/06 06:54:23;;;;;;;6.00;4.00;;;17.90;99.90;;;;;;6096401;23;20202;-90
2023/08/06 06:56:50;;;;;;;6.20;4.17;;;18.10;99.90;;;;;;6093983;23;20199;-90
2023/08/06 06:59:16;;;;;;;12.03;4.37;;;18.20;99.90;;;;;;6095426;23;20273;-91
2023/08/06 07:01:41;;;;;;;4.93;3.50;;;18.20;99.90;;;;;;6096074;23;20727;-91
2023/08/06 07:04:07;;;;;;;3.67;3.23;;;18.30;99.90;;;;;;6093987;23;20206;-91
2023/08/06 07:06:33;;;;;;;13.07;4.00;;;18.40;99.90;;;;;;6094297;23;20200;-90
2023/08/06 07:08:58;;;;;;;10.97;3.77;;;18.60;99.90;;;;;;6095078;23;20276;-90
2023/08/06 07:11:24;;;;;;;5.50;3.87;;;18.60;99.90;;;;;;6094730;23;20605;-91
2023/08/06 07:13:57;;;;;;;4.13;2.87;;;18.70;99.90;;;;;;6095939;23;20535;-91
2023/08/06 07:16:23;;;;;;;10.83;3.27;;;18.70;99.90;;;;;;6118387;23;20270;-92
2023/08/06 07:18:51;;;;;;;4.57;3.33;;;18.70;99.90;;;;;;6094607;23;21052;-90
2023/08/06 07:21:16;;;;;;;4.70;3.97;;;18.90;99.90;;;;;;6120364;23;20247;-92
2023/08/06 07:23:42;;;;;;;5.17;3.97;;;19.00;99.90;;;;;;6095777;23;20565;-91
2023/08/06 07:26:09;;;;;;;4.43;3.23;;;18.90;99.90;;;;;;6095007;23;20163;-92
2023/08/06 07:28:34;;;;;;;5.03;3.17;;;19.00;99.90;;;;;;6096743;23;20164;-92
2023/08/06 07:31:02;;;;;;;5.07;4.00;;;19.00;99.90;;;;;;6119887;23;20207;-92
2023/08/06 07:33:28;;;;;;;5.17;2.93;;;19.10;99.90;;;;;;6096095;23;20243;-91
2023/08/06 07:35:54;;;;;;;4.93;3.77;;;19.10;99.90;;;;;;6095629;23;20231;-91
2023/08/06 07:38:20;;;;;;;5.07;3.20;;;19.00;99.90;;;;;;6094630;23;20272;-92
2023/08/06 07:40:46;;;;;;;4.73;3.30;;;19.00;99.90;;;;;;6096345;23;20184;-92
2023/08/06 07:43:11;;;;;;;5.27;2.73;;;19.10;99.90;;;;;;6095250;23;20310;-91
2023/08/06 07:45:37;;;;;;;3.23;2.60;;;19.00;99.90;;;;;;6095917;23;20215;-91
2023/08/06 07:48:03;;;;;;;4.07;2.80;;;19.20;99.90;;;;;;6095237;23;20198;-92
2023/08/06 07:50:29;;;;;;;3.40;2.30;;;19.40;99.90;;;;;;6095893;23;20196;-91
2023/08/06 07:52:55;;;;;;;2.87;2.27;;;19.60;99.90;;;;;;6096409;23;20191;-92
2023/08/06 07:55:21;;;;;;;4.37;2.90;;;19.70;99.90;;;;;;6095319;23;20200;-91
2023/08/06 07:57:47;;;;;;;3.40;3.10;;;20.10;99.90;;;;;;6094712;23;20302;-91
2023/08/06 08:00:12;;;;;;;3.00;2.67;;;20.50;99.90;;;;;;6095499;23;20637;-92
2023/08/06 08:02:38;;;;;;;4.20;2.83;;;20.90;99.90;;;;;;6095098;23;20215;-92
2023/08/06 08:05:05;;;;;;;4.00;3.17;;;21.40;99.90;;;;;;6095759;23;20161;-91
2023/08/06 08:07:31;;;;;;;5.97;3.03;;;21.80;99.90;;;;;;6094591;23;20782;-91
2023/08/06 08:09:57;;;;;;;3.40;2.87;;;22.40;99.90;;;;;;6095439;23;20200;-92
2023/08/06 08:12:22;;;;;;;5.97;3.57;;;22.20;99.90;;;;;;6095119;23;20212;-91
2023/08/06 08:14:48;;;;;;;6.87;3.23;;;22.70;99.90;;;;;;6095480;23;20634;-91
2023/08/06 08:17:14;;;;;;;5.17;3.00;;;22.90;99.90;;;;;;6093670;23;20160;-91
2023/08/06 08:19:40;;;;;;;5.80;3.00;;;22.50;99.90;;;;;;6095887;23;20168;-92
2023/08/06 08:22:07;;;;;;;3.95;3.25;;;22.70;99.90;;;;;;6119318;23;20199;-91
2023/08/06 08:24:32;;;;;;;3.67;2.70;;;22.70;99.90;;;;;;6119453;23;20220;-92
2023/08/06 08:26:58;;;;;;;3.93;2.53;;;23.20;99.90;;;;;;6094093;23;20207;-91
2023/08/06 08:29:24;;;;;;;2.72;2.35;;;23.70;99.90;;;;;;6094637;23;20223;-92
2023/08/06 08:31:50;;;;;;;2.25;2.05;;;24.20;99.90;;;;;;6096016;23;20196;-90
2023/08/06 08:34:19;;;;;;;3.30;2.47;;;24.90;99.90;;;;;;6094937;23;20203;-90
2023/08/06 08:36:49;;;;;;;2.30;2.10;;;25.10;99.90;;;;;;6094100;23;20204;-91
2023/08/06 08:39:15;;;;;;;3.28;1.45;;;25.10;99.90;;;;;;6096126;23;20203;-91
2023/08/06 08:41:42;;;;;;;2.75;1.77;;;24.60;99.90;;;;;;6094870;23;20192;-90
2023/08/06 08:44:10;;;;;;;1.92;1.67;;;24.70;99.90;;;;;;6118916;23;20173;-87
2023/08/06 08:46:38;;;;;;;2.08;1.83;;;24.00;99.90;;;;;;6120098;23;20157;-90
2023/08/06 08:49:04;;;;;;;2.20;2.00;;;23.90;99.90;;;;;;6120481;23;20199;-90
2023/08/06 08:51:31;;;;;;;2.95;2.00;;;24.50;99.90;;;;;;6094655;23;20199;-90
2023/08/06 08:53:57;;;;;;;5.13;1.85;;;24.10;99.90;;;;;;6095555;23;20207;-90
2023/08/06 08:56:23;;;;;;;2.03;1.60;;;23.90;99.90;;;;;;6093789;23;20494;-90
2023/08/06 08:58:50;;;;;;;2.40;1.65;;;24.10;99.90;;;;;;6095744;23;20578;-90
2023/08/06 09:01:16;;;;;;;1.67;1.55;;;24.00;99.90;;;;;;6094672;23;20278;-90
2023/08/06 09:03:43;;;;;;;1.40;1.27;;;23.30;99.90;;;;;;6118939;23;20236;-89
2023/08/06 09:06:11;;;;;;;1.85;1.30;;;23.40;99.90;;;;;;6118754;23;20927;-89
2023/08/06 09:08:50;;;;;;;1.73;1.30;;;22.30;99.90;;;;;;6119535;23;20196;-90
2023/08/06 09:11:17;;;;;;;2.88;1.85;;;22.00;99.90;;;;;;6118996;23;20210;-90
2023/08/06 09:13:43;;;;;;;3.65;2.28;;;21.40;99.90;;;;;;6119952;23;20187;-90
2023/08/06 09:16:08;;;;;;;3.65;1.35;;;21.50;99.90;;;;;;6093897;23;20218;-93
2023/08/06 09:18:34;;;;;;;2.00;1.85;;;21.90;99.90;;;;;;6095409;23;20656;-91
2023/08/06 09:21:00;;;;;;;1.10;0.98;;;22.10;99.90;;;;;;6094438;23;20196;-91
2023/08/06 09:23:30;;;;;;;1.65;1.50;;;21.40;99.90;;;;;;6094871;23;20232;-90
2023/08/06 09:25:57;;;;;;;1.60;1.38;;;21.00;99.90;;;;;;6095563;23;20171;-90
2023/08/06 09:28:24;;;;;;;1.40;1.20;;;21.00;99.90;;;;;;6117207;23;20575;-91
2023/08/06 09:30:52;;;;;;;1.95;1.08;;;21.00;99.90;;;;;;6119003;23;20200;-89
2023/08/06 09:33:19;;;;;;;2.92;1.00;;;21.40;99.90;;;;;;6094267;23;20203;-90
2023/08/06 09:35:46;;;;;;;1.27;1.17;;;23.30;99.90;;;;;;6094510;23;20645;-89
2023/08/06 09:38:13;;;;;;;1.90;1.48;;;23.30;99.90;;;;;;6118342;23;20163;-89
2023/08/06 09:40:39;;;;;;;1.88;1.33;;;23.50;99.90;;;;;;6118402;23;20164;-91
2023/08/06 09:43:06;;;;;;;2.55;1.80;;;22.60;99.90;;;;;;6094107;23;20192;-91
2023/08/06 09:45:36;;;;;;;1.98;1.52;;;21.60;99.90;;;;;;6094636;23;20199;-90
2023/08/06 09:48:09;;;;;;;3.03;1.58;;;21.40;99.90;;;;;;6117324;23;20549;-90
2023/08/06 09:50:36;;;;;;;1.70;1.52;;;21.00;99.90;;;;;;6119593;23;20254;-91
2023/08/06 09:53:08;;;;;;;2.72;1.80;;;21.00;99.90;;;;;;6119529;23;20275;-90
2023/08/06 09:55:34;;;;;;;1.70;1.50;;;20.80;99.90;;;;;;6118877;23;20223;-89
2023/08/06 09:58:01;;;;;;;2.45;1.85;;;21.00;99.90;;;;;;6093605;23;20641;-89
2023/08/06 10:00:28;;;;;;;2.03;1.67;;;20.80;99.90;;;;;;6094419;23;20211;-88
2023/08/06 10:02:55;;;;;;;1.38;1.27;;;20.40;99.90;;;;;;6118774;23;20668;-90
2023/08/06 10:05:25;;;;;;;1.77;1.40;;;20.50;99.90;;;;;;6096486;23;20215;-88
2023/08/06 10:07:51;;;;;;;2.60;1.30;;;20.60;99.90;;;;;;6096156;23;20590;-88
2023/08/06 10:10:19;;;;;;;2.17;1.58;;;20.40;99.90;;;;;;6095448;23;20207;-87
2023/08/06 10:12:55;;;;;;;3.28;1.50;;;20.40;99.90;;;;;;6096627;23;20246;-91
2023/08/06 10:15:26;;;;;;;2.57;1.60;;;20.40;99.90;;;;;;6121697;23;20552;-89
2023/08/06 10:17:55;;;;;;;2.17;1.55;;;20.80;99.90;;;;;;6119612;23;20213;-89
2023/08/06 10:20:22;;;;;;;3.50;2.40;;;21.40;99.90;;;;;;6121054;23;20538;-88
2023/08/06 10:23:05;;;;;;;1.63;1.38;;;21.80;99.90;;;;;;6120957;23;20184;-87
2023/08/06 10:25:33;;;;;;;2.28;2.00;;;21.50;99.90;;;;;;6120020;23;20207;-87
2023/08/06 10:27:59;;;;;;;2.05;1.60;;;21.50;99.90;;;;;;6096089;23;20204;-89
2023/08/06 10:30:32;;;;;;;3.63;1.73;;;21.70;99.90;;;;;;6094644;23;20312;-89
2023/08/06 10:33:02;;;;;;;4.60;1.88;;;21.50;99.90;;;;;;6120078;23;20255;-90
2023/08/06 10:35:40;;;;;;;2.47;1.65;;;21.10;99.90;;;;;;6121241;23;20699;-87
2023/08/06 10:38:15;;;;;;;2.20;2.00;;;20.60;99.90;;;;;;6119314;23;20530;-86
2023/08/06 10:40:49;;;;;;;4.63;2.45;;;20.50;99.90;;;;;;6096140;23;20191;-88
2023/08/06 10:43:28;;;;;;;2.17;1.95;;;20.00;99.90;;;;;;6117740;23;20203;-87
2023/08/06 10:45:55;;;;;;;2.43;2.03;;;19.90;99.90;;;;;;6118381;23;20206;-87
2023/08/06 10:48:38;;;;;;;2.20;2.00;;;20.00;99.90;;;;;;6093527;23;20206;-87
2023/08/06 10:51:09;;;;;;;2.67;1.93;;;19.90;99.90;;;;;;6119604;23;20188;-88
2023/08/06 10:53:35;;;;;;;2.08;1.75;;;19.90;99.90;;;;;;6118122;23;20211;-88
2023/08/06 10:56:01;;;;;;;4.13;2.10;;;19.80;99.90;;;;;;6095501;23;20197;-90
2023/08/06 10:58:32;;;;;;;2.33;1.80;;;19.80;99.90;;;;;;6118375;23;20251;-90
2023/08/06 11:00:59;;;;;;;2.07;1.87;;;19.80;99.90;;;;;;6093728;23;20716;-89
2023/08/06 11:03:26;;;;;;;4.83;2.07;;;19.80;99.90;;;;;;6119146;23;20195;-86
2023/08/06 11:05:52;;;;;;;2.93;2.30;;;19.90;99.90;;;;;;6094251;23;20588;-85
2023/08/06 11:08:37;;;;;;;2.93;2.30;;;19.80;99.90;;;;;;6102614;23;20252;-86
2023/08/06 11:11:11;;;;;;;2.53;2.23;;;19.80;99.90;;;;;;6077916;23;20156;-88
2023/08/06 11:13:38;;;;;;;2.43;2.17;;;19.90;99.90;;;;;;6118619;23;20204;-89
2023/08/06 11:16:08;;;;;;;1.90;1.73;;;19.60;99.90;;;;;;6093933;23;20204;-89
2023/08/06 11:18:34;;;;;;;2.50;2.00;;;19.60;99.90;;;;;;6094319;23;20207;-88
2023/08/06 11:21:01;;;;;;;2.57;2.37;;;19.60;99.90;;;;;;6093756;23;20188;-87
2023/08/06 11:23:30;;;;;;;3.90;2.20;;;19.70;99.90;;;;;;6118671;23;20247;-86
2023/08/06 11:25:57;;;;;;;6.20;2.27;;;19.80;99.90;;;;;;6119046;23;20164;-87
2023/08/06 11:28:23;;;;;;;3.67;2.27;;;19.70;99.90;;;;;;6117950;23;20223;-87
2023/08/06 11:30:49;;;;;;;2.80;1.60;;;19.50;99.90;;;;;;6094326;23;20660;-87
2023/08/06 11:33:21;;;;;;;2.53;2.33;;;19.60;99.90;;;;;;6094000;23;20254;-88
2023/08/06 11:35:48;;;;;;;2.00;1.70;;;19.80;99.90;;;;;;6118640;23;20282;-88
2023/08/06 11:38:14;;;;;;;1.87;1.67;;;20.10;99.90;;;;;;6117728;23;20168;-87
2023/08/06 11:40:40;;;;;;;1.93;1.67;;;20.20;99.90;;;;;;6095581;23;20167;-87
2023/08/06 11:43:06;;;;;;;3.33;2.47;;;20.20;99.90;;;;;;6094084;23;20200;-88
2023/08/06 11:45:35;;;;;;;2.50;2.00;;;20.10;99.90;;;;;;6094077;23;20206;-87
2023/08/06 11:48:01;;;;;;;2.40;2.20;;;20.60;99.90;;;;;;6117754;23;20262;-88
2023/08/06 11:50:28;;;;;;;4.63;2.73;;;20.60;99.90;;;;;;6094688;23;20167;-90
2023/08/06 11:52:58;;;;;;;2.67;2.20;;;20.70;99.90;;;;;;6094152;23;20202;-87
2023/08/06 11:55:25;;;;;;;3.13;2.10;;;20.70;99.90;;;;;;6093741;23;20279;-89
2023/08/06 11:57:51;;;;;;;2.13;1.93;;;21.00;99.90;;;;;;6117760;23;20247;-87
2023/08/06 12:00:19;;;;;;;1.90;1.70;;;20.90;99.90;;;;;;6118283;23;20629;-88
2023/08/06 12:02:46;;;;;;;1.60;1.50;;;20.90;99.90;;;;;;6093496;23;20174;-87
2023/08/06 12:05:14;;;;;;;2.53;1.87;;;20.70;99.90;;;;;;6094409;23;20192;-87
2023/08/06 12:07:48;;;;;;;2.33;1.87;;;20.80;99.90;;;;;;6091857;23;20211;-87
2023/08/06 12:10:14;;;;;;;3.37;2.13;;;20.90;99.90;;;;;;6093194;23;20210;-87
2023/08/06 12:12:40;;;;;;;2.70;1.57;;;21.10;99.90;;;;;;6094157;23;20463;-87
2023/08/06 12:15:07;;;;;;;2.43;2.00;;;21.10;99.90;;;;;;6117958;23;20899;-87
2023/08/06 12:17:33;;;;;;;2.03;1.80;;;20.60;99.90;;;;;;6092775;23;20624;-87
2023/08/06 12:19:59;;;;;;;7.27;1.73;;;20.90;99.90;;;;;;6095341;23;20164;-86
2023/08/06 12:22:25;;;;;;;4.80;2.40;;;21.10;99.90;;;;;;6092090;23;20676;-89
2023/08/06 12:24:51;;;;;;;2.40;1.87;;;21.50;99.90;;;;;;6093588;23;20195;-86
2023/08/06 12:27:17;;;;;;;2.10;1.83;;;21.50;99.90;;;;;;6092737;23;20191;-86
2023/08/06 12:29:45;;;;;;;1.77;1.58;;;21.50;99.90;;;;;;6118723;23;20188;-87
2023/08/06 12:32:11;;;;;;;4.60;2.05;;;21.30;99.90;;;;;;6094982;23;20697;-86
2023/08/06 12:34:41;;;;;;;1.90;1.65;;;21.50;99.90;;;;;;6094266;23;20346;-86
2023/08/06 12:37:08;;;;;;;4.15;2.22;;;21.60;99.90;;;;;;6116815;23;20282;-87
2023/08/06 12:39:35;;;;;;;3.42;1.73;;;21.40;99.90;;;;;;6094537;23;20196;-87
2023/08/06 12:42:05;;;;;;;2.40;1.90;;;21.50;99.90;;;;;;6094769;23;20206;-88
2023/08/06 12:44:32;;;;;;;1.98;1.80;;;21.80;99.90;;;;;;6118130;23;20312;-88